createdAt,value
2018-03-20T00:02:06.485Z,90.30
2018-03-20T00:04:34.013Z,88.93
2018-03-20T00:07:01.523Z,94.53
2018-03-20T00:09:29.815Z,91.00
2018-03-20T00:11:58.090Z,87.80
2018-03-20T00:14:26.395Z,86.60
2018-03-20T00:16:53.909Z,81.83
2018-03-20T00:19:22.202Z,93.20
2018-03-20T00:21:50.474Z,96.67
2018-03-20T00:24:18.763Z,91.97
2018-03-20T00:26:46.271Z,81.97
2018-03-20T00:29:13.799Z,83.53
2018-03-20T00:31:41.309Z,95.03
2018-03-20T00:34:08.835Z,96.07
2018-03-20T00:36:36.339Z,84.50
2018-03-20T00:39:03.875Z,91.17
2018-03-20T00:41:31.383Z,72.27
2018-03-20T00:43:58.889Z,80.47
2018-03-20T00:46:26.416Z,76.07
2018-03-20T00:48:53.914Z,75.23
2018-03-20T00:51:21.435Z,89.07
2018-03-20T00:53:48.943Z,70.70
2018-03-20T00:56:17.237Z,76.43
2018-03-20T00:58:44.742Z,78.93
2018-03-20T01:01:12.271Z,80.80
2018-03-20T01:03:39.786Z,72.70
2018-03-20T01:06:08.074Z,87.83
2018-03-20T01:08:36.353Z,78.20
2018-03-20T01:11:04.654Z,91.23
2018-03-20T01:13:32.163Z,77.63
2018-03-20T01:15:59.682Z,76.87
2018-03-20T01:18:27.190Z,85.63
2018-03-20T01:20:55.488Z,85.97
2018-03-20T01:23:22.998Z,76.90
2018-03-20T01:25:50.523Z,72.90
2018-03-20T01:28:18.039Z,85.27
2018-03-20T01:30:46.326Z,73.23
2018-03-20T01:33:14.599Z,84.70
2018-03-20T01:35:43.162Z,79.10
2018-03-20T01:38:10.667Z,75.83
2018-03-20T01:40:38.190Z,71.53
2018-03-20T01:43:06.463Z,74.93
2018-03-20T01:45:34.751Z,78.47
2018-03-20T01:48:03.019Z,74.77
2018-03-20T01:50:31.306Z,76.63
2018-03-20T01:53:11.379Z,74.90
2018-03-20T01:55:39.195Z,75.20
2018-03-20T01:58:06.704Z,68.00
2018-03-20T02:00:34.222Z,69.93
2018-03-20T02:03:01.725Z,69.03
2018-03-20T02:05:29.264Z,70.87
2018-03-20T02:07:56.782Z,68.33
2018-03-20T02:10:24.306Z,72.33
2018-03-20T02:12:51.811Z,74.30
2018-03-20T02:15:20.107Z,71.73
2018-03-20T02:17:48.379Z,87.23
2018-03-20T02:20:16.662Z,72.47
2018-03-20T02:22:44.169Z,73.20
2018-03-20T02:25:11.686Z,72.10
2018-03-20T02:27:39.194Z,76.33
2018-03-20T02:30:07.024Z,74.07
2018-03-20T02:32:34.532Z,74.50
2018-03-20T02:35:02.056Z,68.20
2018-03-20T02:37:29.567Z,71.77
2018-03-20T02:39:57.855Z,68.50
2018-03-20T02:42:25.363Z,76.07
2018-03-20T02:44:52.897Z,75.13
2018-03-20T02:47:20.410Z,68.53
2018-03-20T02:49:48.702Z,72.13
2018-03-20T02:52:17.007Z,79.50
2018-03-20T02:54:44.530Z,74.23
2018-03-20T02:57:12.799Z,63.10
2018-03-20T02:59:41.068Z,79.70
2018-03-20T03:02:09.359Z,75.17
2018-03-20T03:04:37.627Z,67.30
2018-03-20T03:07:05.920Z,85.17
2018-03-20T03:09:33.422Z,83.80
2018-03-20T03:12:00.946Z,74.50
2018-03-20T03:14:28.451Z,89.17
2018-03-20T03:16:55.975Z,79.93
2018-03-20T03:19:23.474Z,66.63
2018-03-20T03:21:51.008Z,79.53
2018-03-20T03:24:18.510Z,70.03
2018-03-20T03:26:46.802Z,75.00
2018-03-20T03:29:14.307Z,62.63
2018-03-20T03:31:41.835Z,70.73
2018-03-20T03:34:09.338Z,68.53
2018-03-20T03:36:36.861Z,70.20
2018-03-20T03:39:04.362Z,64.20
2018-03-20T03:41:31.886Z,79.97
2018-03-20T03:43:59.402Z,69.03
2018-03-20T03:46:27.686Z,63.03
2018-03-20T03:48:55.210Z,71.37
2018-03-20T03:51:22.731Z,72.57
2018-03-20T03:53:50.230Z,70.90
2018-03-20T03:56:17.750Z,59.13
2018-03-20T03:58:45.259Z,61.43
2018-03-20T04:01:13.543Z,66.30
2018-03-20T04:03:41.810Z,62.07
2018-03-20T04:06:10.102Z,71.80
2018-03-20T04:08:37.602Z,70.23
2018-03-20T04:11:05.135Z,59.47
2018-03-20T04:13:32.639Z,59.63
2018-03-20T04:16:00.171Z,71.60
2018-03-20T04:18:27.675Z,65.57
2018-03-20T04:20:55.958Z,66.23
2018-03-20T04:23:24.226Z,58.00
2018-03-20T04:25:52.515Z,70.40
2018-03-20T04:28:20.788Z,59.57
2018-03-20T04:30:49.500Z,63.87
2018-03-20T04:33:17.035Z,71.03
2018-03-20T04:35:45.318Z,65.77
2018-03-20T04:38:12.832Z,64.00
2018-03-20T04:40:40.349Z,60.77
2018-03-20T04:43:07.850Z,59.37
2018-03-20T04:45:35.377Z,63.30
2018-03-20T04:48:02.907Z,64.17
2018-03-20T04:50:30.431Z,70.53
2018-03-20T04:52:57.941Z,66.77
2018-03-20T04:55:25.461Z,66.90
2018-03-20T04:57:53.738Z,69.10
2018-03-20T05:00:22.031Z,71.03
2018-03-20T05:02:49.542Z,75.03
2018-03-20T05:05:17.043Z,62.60
2018-03-20T05:07:45.335Z,65.43
2018-03-20T05:10:12.838Z,56.80
2018-03-20T05:15:11.035Z,68.07
2018-03-20T05:17:38.562Z,68.27
2018-03-20T05:20:20.795Z,71.33
2018-03-20T05:22:54.117Z,71.63
2018-03-20T05:25:22.389Z,67.80
2018-03-20T05:27:50.682Z,65.60
2018-03-20T05:30:18.185Z,74.93
2018-03-20T05:32:45.710Z,72.47
2018-03-20T05:35:13.214Z,76.13
2018-03-20T05:37:40.739Z,69.20
2018-03-20T05:40:08.239Z,70.27
2018-03-20T05:42:35.759Z,60.87
2018-03-20T05:45:03.258Z,74.10
2018-03-20T05:50:51.014Z,75.17
2018-03-20T05:53:18.521Z,68.60
2018-03-20T05:55:46.030Z,69.07
2018-03-20T05:58:13.541Z,68.70
2018-03-20T06:00:41.043Z,84.17
2018-03-20T06:03:09.330Z,71.13
2018-03-20T06:05:37.606Z,79.00
2018-03-20T06:08:05.902Z,70.00
2018-03-20T06:10:33.414Z,66.80
2018-03-20T06:13:00.938Z,61.93
2018-03-20T06:15:28.493Z,67.47
2018-03-20T06:17:56.754Z,69.90
2018-03-20T06:20:24.263Z,71.60
2018-03-20T06:22:51.787Z,67.37
2018-03-20T06:25:19.299Z,53.53
2018-03-20T06:27:47.600Z,54.80
2018-03-20T06:30:17.390Z,57.50
2018-03-20T06:32:45.743Z,62.57
2018-03-20T06:35:13.263Z,59.40
2018-03-20T06:37:40.792Z,59.30
2018-03-20T06:40:09.067Z,55.47
2018-03-20T06:42:37.359Z,53.50
2018-03-20T06:45:04.862Z,55.00
2018-03-20T06:47:32.382Z,50.03
2018-03-20T06:49:59.906Z,53.50
2018-03-20T06:52:27.619Z,48.33
2018-03-20T06:54:55.202Z,57.47
2018-03-20T06:57:22.784Z,55.23
2018-03-20T06:59:51.070Z,48.77
2018-03-20T07:02:19.358Z,47.20
2018-03-20T07:04:47.626Z,53.40
2018-03-20T07:07:15.922Z,52.90
2018-03-20T07:09:43.430Z,54.90
2018-03-20T07:12:10.954Z,54.97
2018-03-20T07:14:38.471Z,53.77
2018-03-20T07:17:06.763Z,44.47
2018-03-20T07:19:35.034Z,58.60
2018-03-20T07:22:03.336Z,52.60
2018-03-20T07:24:30.844Z,53.80
2018-03-20T07:26:58.351Z,52.77
2018-03-20T07:29:25.875Z,54.47
2018-03-20T07:31:54.142Z,57.57
2018-03-20T07:34:21.666Z,58.23
2018-03-20T07:36:49.166Z,50.90
2018-03-20T07:39:17.455Z,53.53
2018-03-20T07:41:45.731Z,57.77
2018-03-20T07:44:14.015Z,51.43
2018-03-20T07:46:41.519Z,57.97
2018-03-20T07:49:09.043Z,59.20
2018-03-20T07:51:36.547Z,62.00
2018-03-20T07:54:04.067Z,63.23
2018-03-20T07:56:31.570Z,59.13
2018-03-20T07:58:59.096Z,47.47
2018-03-20T08:01:26.598Z,64.00
2018-03-20T08:03:54.890Z,57.43
2018-03-20T08:06:23.163Z,50.97
2018-03-20T08:08:51.454Z,58.30
2018-03-20T08:11:18.963Z,54.73
2018-03-20T08:13:46.528Z,51.80
2018-03-20T08:16:13.997Z,47.30
2018-03-20T08:18:41.518Z,61.97
2018-03-20T08:21:09.070Z,49.17
2018-03-20T08:23:36.563Z,47.57
2018-03-20T08:26:04.074Z,47.43
2018-03-20T08:28:31.595Z,48.67
2018-03-20T08:30:59.862Z,39.83
2018-03-20T08:33:27.383Z,48.07
2018-03-20T08:35:54.887Z,48.00
2018-03-20T08:38:23.174Z,41.00
2018-03-20T08:40:51.447Z,36.50
2018-03-20T08:43:19.736Z,44.40
2018-03-20T08:45:47.242Z,48.43
2018-03-20T08:48:14.768Z,40.30
2018-03-20T08:50:42.274Z,35.23
2018-03-20T08:53:09.798Z,39.30
2018-03-20T08:55:37.302Z,38.80
2018-03-20T08:58:05.590Z,47.20
2018-03-20T09:00:33.866Z,43.87
2018-03-20T09:03:02.158Z,46.57
2018-03-20T09:05:29.667Z,37.10
2018-03-20T09:07:57.184Z,44.00
2018-03-20T09:10:24.682Z,36.23
2018-03-20T09:12:52.201Z,39.40
2018-03-20T09:15:19.711Z,40.00
2018-03-20T09:17:47.224Z,32.27
2018-03-20T09:20:14.741Z,31.63
2018-03-20T09:22:43.020Z,32.67
2018-03-20T09:25:11.307Z,30.60
2018-03-20T09:27:38.811Z,36.30
2018-03-20T09:30:06.335Z,32.33
2018-03-20T09:32:33.846Z,39.33
2018-03-20T09:35:01.380Z,37.53
2018-03-20T09:37:28.887Z,31.23
2018-03-20T09:39:57.179Z,29.30
2018-03-20T09:42:24.682Z,28.47
2018-03-20T09:44:52.203Z,28.90
2018-03-20T09:47:19.707Z,33.77
2018-03-20T09:49:47.231Z,26.67
2018-03-20T09:52:14.735Z,30.27
2018-03-20T09:54:42.259Z,32.97
2018-03-20T09:57:09.754Z,29.93
2018-03-20T09:59:37.270Z,34.37
2018-03-20T10:02:04.772Z,28.00
2018-03-20T10:04:33.054Z,29.60
2018-03-20T10:07:01.330Z,21.77
2018-03-20T10:09:29.613Z,26.10
2018-03-20T10:11:57.874Z,21.13
2018-03-20T10:14:25.386Z,30.37
2018-03-20T10:16:52.885Z,30.50
2018-03-20T10:19:20.402Z,33.70
2018-03-20T10:21:47.903Z,29.40
2018-03-20T10:24:15.430Z,27.13
2018-03-20T10:26:42.939Z,29.60
2018-03-20T10:29:11.231Z,24.90
2018-03-20T10:31:38.755Z,30.70
2018-03-20T10:34:06.278Z,25.73
2018-03-20T10:36:33.779Z,29.77
2018-03-20T10:39:02.062Z,25.87
2018-03-20T10:41:30.373Z,26.33
2018-03-20T10:43:58.637Z,29.00
2018-03-20T10:46:26.151Z,26.13
2018-03-20T10:48:53.656Z,27.77
2018-03-20T10:51:21.171Z,28.67
2018-03-20T10:53:48.675Z,35.57
2018-03-20T10:56:16.194Z,25.40
2018-03-20T10:58:44.870Z,25.67
2018-03-20T11:01:18.055Z,27.27
2018-03-20T11:03:45.564Z,28.10
2018-03-20T11:06:13.078Z,20.70
2018-03-20T11:08:40.582Z,26.43
2018-03-20T11:11:08.102Z,23.27
2018-03-20T11:13:36.378Z,23.70
2018-03-20T11:16:04.674Z,23.03
2018-03-20T11:18:32.183Z,25.20
2018-03-20T11:20:59.707Z,20.90
2018-03-20T11:23:27.207Z,22.90
2018-03-20T11:25:54.723Z,30.10
2018-03-20T11:28:22.222Z,19.83
2018-03-20T11:30:49.738Z,20.37
2018-03-20T11:33:17.239Z,16.77
2018-03-20T11:35:44.756Z,12.97
2018-03-20T11:38:12.251Z,13.83
2018-03-20T11:40:39.774Z,16.50
2018-03-20T11:43:07.276Z,14.93
2018-03-20T11:45:34.775Z,15.63
2018-03-20T11:48:02.295Z,16.37
2018-03-20T11:50:29.870Z,10.70
2018-03-20T11:52:58.154Z,11.67
2018-03-20T11:55:26.419Z,21.33
2018-03-20T11:57:54.704Z,18.37
2018-03-20T12:00:22.975Z,23.63
2018-03-20T12:02:51.538Z,22.13
2018-03-20T12:05:19.038Z,20.60
2018-03-20T12:07:53.329Z,17.03
2018-03-20T12:10:21.598Z,14.73
2018-03-20T12:12:49.115Z,14.90
2018-03-20T12:15:16.613Z,16.80
2018-03-20T12:17:44.126Z,16.57
2018-03-20T12:20:11.628Z,17.57
2018-03-20T12:22:39.147Z,18.90
2018-03-20T12:25:06.643Z,17.77
2018-03-20T12:27:34.159Z,16.73
2018-03-20T12:30:01.658Z,19.00
2018-03-20T12:32:29.171Z,14.37
2018-03-20T12:34:56.666Z,18.60
2018-03-20T12:37:24.181Z,17.90
2018-03-20T12:39:51.691Z,17.63
2018-03-20T12:42:19.203Z,13.37
2018-03-20T12:44:46.720Z,17.80
2018-03-20T12:47:14.995Z,15.90
2018-03-20T12:49:43.263Z,14.80
2018-03-20T12:52:10.783Z,16.50
2018-03-20T12:54:38.279Z,12.03
2018-03-20T12:57:05.794Z,16.50
2018-03-20T12:59:33.298Z,17.20
2018-03-20T13:02:01.582Z,20.20
2018-03-20T13:04:29.856Z,14.77
2018-03-20T13:06:58.122Z,16.53
2018-03-20T13:09:26.415Z,16.00
2018-03-20T13:11:54.675Z,20.00
2018-03-20T13:14:22.186Z,17.70
2018-03-20T13:16:49.687Z,15.63
2018-03-20T13:19:17.209Z,15.20
2018-03-20T13:21:44.723Z,16.10
2018-03-20T13:24:13.010Z,19.60
2018-03-20T13:26:40.507Z,13.83
2018-03-20T13:29:08.023Z,13.83
2018-03-20T13:31:35.513Z,12.20
2018-03-20T13:34:03.031Z,10.80
2018-03-20T13:36:31.294Z,20.13
2018-03-20T13:38:59.579Z,16.60
2018-03-20T13:41:27.843Z,12.70
2018-03-20T13:43:56.122Z,16.10
2018-03-20T13:46:24.390Z,17.40
2018-03-20T13:48:52.683Z,13.90
2018-03-20T13:51:20.946Z,17.50
2018-03-20T13:53:49.227Z,16.10
2018-03-20T13:56:17.490Z,18.63
2018-03-20T13:58:45.009Z,14.40
2018-03-20T14:01:12.517Z,17.57
2018-03-20T14:03:40.799Z,14.80
2018-03-20T14:06:09.107Z,17.60
2018-03-20T14:08:37.375Z,17.93
2018-03-20T14:11:04.884Z,17.40
2018-03-20T14:13:32.395Z,20.80
2018-03-20T14:15:59.904Z,27.57
2018-03-20T14:18:27.663Z,15.53
2018-03-20T14:20:55.166Z,17.47
2018-03-20T14:23:22.701Z,18.03
2018-03-20T14:25:50.966Z,14.60
2018-03-20T14:28:18.486Z,21.57
2018-03-20T14:30:45.982Z,19.90
2018-03-20T14:33:13.495Z,16.17
2018-03-20T14:35:40.994Z,20.80
2018-03-20T14:38:08.512Z,13.73
2018-03-20T14:40:36.015Z,18.37
2018-03-20T14:43:03.530Z,15.07
2018-03-20T14:45:31.030Z,14.40
2018-03-20T14:47:58.541Z,17.07
2018-03-20T14:50:26.038Z,17.70
2018-03-20T14:52:53.560Z,17.30
2018-03-20T14:55:21.067Z,16.83
2018-03-20T14:57:49.343Z,20.77
2018-03-20T15:00:17.631Z,21.00
2018-03-20T15:02:46.183Z,21.03
2018-03-20T15:05:13.698Z,18.17
2018-03-20T15:07:41.203Z,20.07
2018-03-20T15:10:08.722Z,18.33
2018-03-20T15:12:36.230Z,24.77
2018-03-20T15:15:03.737Z,18.03
2018-03-20T15:17:31.234Z,21.13
2018-03-20T15:19:58.756Z,20.77
2018-03-20T15:22:26.260Z,19.00
2018-03-20T15:24:54.002Z,18.53
2018-03-20T15:27:22.262Z,19.43
2018-03-20T15:29:49.775Z,18.33
2018-03-20T15:32:18.042Z,19.43
2018-03-20T15:34:46.322Z,24.30
2018-03-20T15:37:14.594Z,29.50
2018-03-20T15:39:42.880Z,26.93
2018-03-20T15:42:11.150Z,25.57
2018-03-20T15:44:39.434Z,28.40
2018-03-20T15:47:07.698Z,25.43
2018-03-20T15:49:35.983Z,21.23
2018-03-20T15:52:04.259Z,23.10
2018-03-20T15:54:32.545Z,19.23
2018-03-20T15:57:00.043Z,22.40
2018-03-20T15:59:28.322Z,24.10
2018-03-20T16:01:55.818Z,23.17
2018-03-20T16:04:24.108Z,27.40
2018-03-20T16:06:51.602Z,16.30
2018-03-20T16:09:19.133Z,27.67
2018-03-20T16:11:46.644Z,17.10
2018-03-20T16:14:14.172Z,26.80
2018-03-20T16:16:41.675Z,33.73
2018-03-20T16:19:09.194Z,25.00
2018-03-20T16:21:36.702Z,36.20
2018-03-20T16:24:04.986Z,86.30
2018-03-20T16:26:32.498Z,36.30
2018-03-20T16:29:00.024Z,24.33
2018-03-20T16:31:27.546Z,24.10
2018-03-20T16:33:55.814Z,23.50
2018-03-20T16:36:23.336Z,19.30
2018-03-20T16:38:50.835Z,20.83
2018-03-20T16:41:19.147Z,24.27
2018-03-20T16:43:46.654Z,27.87
2018-03-20T16:46:14.179Z,31.10
2018-03-20T16:48:41.983Z,40.17
2018-03-20T16:51:09.506Z,94.20
2018-03-20T16:53:37.016Z,66.93
2018-03-20T16:56:05.298Z,79.23
2018-03-20T16:58:33.574Z,54.80
2018-03-20T17:01:01.110Z,48.37
2018-03-20T17:03:28.623Z,54.63
2018-03-20T17:05:56.145Z,46.07
2018-03-20T17:08:24.416Z,51.77
2018-03-20T17:10:52.704Z,57.83
2018-03-20T17:13:20.215Z,45.33
2018-03-20T17:15:47.734Z,49.87
2018-03-20T17:18:15.246Z,44.83
2018-03-20T17:20:42.774Z,56.77
2018-03-20T17:23:10.279Z,63.57
2018-03-20T17:25:38.575Z,169.40
2018-03-20T17:28:06.849Z,399.57
2018-03-20T17:30:35.143Z,304.07
2018-03-20T17:33:02.654Z,425.30
2018-03-20T17:35:35.838Z,170.17
2018-03-20T17:38:03.356Z,106.57
2018-03-20T17:40:30.889Z,221.90
2018-03-20T17:42:59.167Z,254.57
2018-03-20T17:45:26.696Z,54.73
2018-03-20T17:47:54.211Z,39.63
2018-03-20T17:50:21.737Z,38.57
2018-03-20T17:52:50.007Z,39.40
2018-03-20T17:55:18.294Z,35.30
2018-03-20T17:57:45.803Z,36.40
2018-03-20T18:00:13.329Z,35.97
2018-03-20T18:02:41.096Z,34.97
2018-03-20T18:05:08.611Z,29.97
2018-03-20T18:07:36.144Z,42.07
2018-03-20T18:10:03.654Z,36.80
2018-03-20T18:12:31.170Z,30.47
2018-03-20T18:14:58.680Z,33.57
2018-03-20T18:17:26.199Z,34.07
2018-03-20T18:19:53.706Z,37.47
2018-03-20T18:22:21.230Z,38.80
2018-03-20T18:24:49.506Z,43.93
2018-03-20T18:27:17.791Z,44.27
2018-03-20T18:29:46.060Z,38.50
2018-03-20T18:32:14.619Z,42.20
2018-03-20T18:34:42.129Z,38.30
2018-03-20T18:37:09.654Z,42.60
2018-03-20T18:39:37.933Z,39.70
2018-03-20T18:42:06.235Z,43.47
2018-03-20T18:44:33.747Z,42.07
2018-03-20T18:47:01.272Z,41.37
2018-03-20T18:49:28.782Z,48.47
2018-03-20T18:51:57.063Z,45.00
2018-03-20T18:54:25.343Z,51.63
2018-03-20T18:56:53.627Z,43.57
2018-03-20T18:59:21.139Z,38.83
2018-03-20T19:01:48.661Z,38.17
2018-03-20T19:04:16.174Z,25.13
2018-03-20T19:06:43.680Z,25.90
2018-03-20T19:09:11.203Z,26.50
2018-03-20T19:11:39.474Z,24.17
2018-03-20T19:14:07.762Z,32.77
2018-03-20T19:16:36.034Z,30.47
2018-03-20T19:19:04.322Z,24.87
2018-03-20T19:21:31.851Z,25.47
2018-03-20T19:23:59.375Z,26.93
2018-03-20T19:26:26.883Z,22.03
2018-03-20T19:28:55.170Z,30.10
2018-03-20T19:31:23.005Z,28.97
2018-03-20T19:33:50.530Z,30.77
2018-03-20T19:36:18.029Z,24.50
2018-03-20T19:38:46.465Z,43.43
2018-03-20T19:41:14.259Z,24.43
2018-03-20T19:43:41.777Z,25.83
2018-03-20T19:46:09.278Z,24.87
2018-03-20T19:48:36.801Z,34.50
2018-03-20T19:51:04.306Z,55.27
2018-03-20T19:53:32.603Z,27.13
2018-03-20T19:56:00.111Z,31.20
2018-03-20T19:58:27.647Z,27.13
2018-03-20T20:00:55.151Z,30.93
2018-03-20T20:03:22.675Z,28.53
2018-03-20T20:05:50.187Z,26.83
2018-03-20T20:08:18.476Z,26.30
2018-03-20T20:10:45.987Z,27.63
2018-03-20T20:13:13.536Z,32.67
2018-03-20T20:15:41.044Z,29.77
2018-03-20T20:18:08.562Z,26.63
2018-03-20T20:20:36.066Z,31.83
2018-03-20T20:23:03.598Z,34.07
2018-03-20T20:25:31.929Z,28.30
2018-03-20T20:27:59.416Z,38.77
2018-03-20T20:30:26.920Z,36.57
2018-03-20T20:32:54.450Z,37.73
2018-03-20T20:35:23.022Z,40.13
2018-03-20T20:37:50.552Z,33.33
2018-03-20T20:40:18.054Z,33.20
2018-03-20T20:42:46.346Z,35.20
2018-03-20T20:45:13.862Z,37.50
2018-03-20T20:47:41.402Z,33.07
2018-03-20T20:50:08.918Z,37.57
2018-03-20T20:52:36.438Z,35.87
2018-03-20T20:55:03.941Z,39.50
2018-03-20T20:57:31.510Z,40.60
2018-03-20T20:59:59.750Z,42.13
2018-03-20T21:02:28.039Z,37.27
2018-03-20T21:04:56.312Z,42.97
2018-03-20T21:07:24.574Z,38.57
2018-03-20T21:09:52.098Z,45.07
2018-03-20T21:12:19.602Z,41.83
2018-03-20T21:14:47.892Z,42.03
2018-03-20T21:17:15.405Z,40.53
2018-03-20T21:19:42.926Z,37.50
2018-03-20T21:22:10.435Z,39.40
2018-03-20T21:24:37.960Z,37.17
2018-03-20T21:27:05.473Z,40.60
2018-03-20T21:29:33.760Z,38.53
2018-03-20T21:32:01.258Z,52.70
2018-03-20T21:34:28.782Z,44.20
2018-03-20T21:36:56.294Z,40.50
2018-03-20T21:39:23.818Z,45.57
2018-03-20T21:41:51.338Z,45.13
2018-03-20T21:44:19.618Z,41.57
2018-03-20T21:46:47.122Z,46.10
2018-03-20T21:49:14.642Z,41.50
2018-03-20T21:51:42.148Z,45.17
2018-03-20T21:54:11.189Z,45.00
2018-03-20T21:56:38.710Z,50.83
2018-03-20T21:59:06.230Z,38.33
2018-03-20T22:01:33.736Z,48.60
2018-03-20T22:04:02.033Z,44.93
2018-03-20T22:06:30.308Z,52.13
2018-03-20T22:08:58.595Z,42.23
2018-03-20T22:11:26.106Z,44.70
2018-03-20T22:13:53.626Z,47.80
2018-03-20T22:16:21.130Z,49.17
2018-03-20T22:18:48.660Z,52.23
2018-03-20T22:21:16.166Z,49.50
2018-03-20T22:23:44.496Z,50.47
2018-03-20T22:26:12.006Z,55.10
2018-03-20T22:28:40.300Z,47.80
2018-03-20T22:31:07.810Z,52.03
2018-03-20T22:33:35.334Z,51.30
2018-03-20T22:36:02.843Z,51.40
2018-03-20T22:38:31.137Z,50.93
2018-03-20T22:40:59.414Z,51.60
2018-03-20T22:43:27.702Z,49.40
2018-03-20T22:45:55.213Z,58.13
2018-03-20T22:48:23.150Z,53.73
2018-03-20T22:50:51.431Z,48.80
2018-03-20T22:53:18.941Z,58.03
2018-03-20T22:55:47.265Z,52.20
2018-03-20T22:58:14.767Z,52.53
2018-03-20T23:00:42.270Z,49.67
2018-03-20T23:03:10.037Z,45.17
2018-03-20T23:05:37.546Z,49.60
2018-03-20T23:08:05.051Z,50.50
2018-03-20T23:10:32.575Z,52.70
2018-03-20T23:13:00.851Z,54.43
2018-03-20T23:15:29.138Z,55.07
2018-03-20T23:17:56.646Z,51.27
2018-03-20T23:20:24.168Z,49.17
2018-03-20T23:22:51.674Z,48.73
2018-03-20T23:25:19.199Z,54.77
2018-03-20T23:27:46.710Z,60.57
2018-03-20T23:30:14.994Z,50.10
2018-03-20T23:32:43.266Z,54.73
2018-03-20T23:35:11.554Z,48.70
2018-03-20T23:37:39.062Z,45.03
2018-03-20T23:40:06.590Z,46.90
2018-03-20T23:42:34.094Z,51.67
2018-03-20T23:45:01.610Z,53.33
2018-03-20T23:47:29.118Z,48.30
2018-03-20T23:49:56.642Z,58.60
2018-03-20T23:52:24.142Z,59.40
2018-03-20T23:54:52.435Z,56.60
2018-03-20T23:57:20.702Z,58.77
2018-03-20T23:59:49.002Z,63.30
